createdAt,value
2023-02-03T00:00:01.101Z,89
2023-02-03T00:04:00.938Z,89
2023-02-03T00:08:01.884Z,90
2023-02-03T00:12:01.184Z,90
2023-02-03T00:16:01.261Z,90
2023-02-03T00:20:00.990Z,90
2023-02-03T00:24:01.232Z,90
2023-02-03T00:28:01.563Z,90
2023-02-03T00:32:01.251Z,90
2023-02-03T00:36:03.897Z,90
2023-02-03T00:40:01.116Z,90
2023-02-03T00:44:01.003Z,90
2023-02-03T00:48:01.111Z,90
2023-02-03T00:52:01.066Z,90
2023-02-03T00:56:01.081Z,90
2023-02-03T01:00:01.111Z,90
2023-02-03T01:04:01.618Z,90
2023-02-03T01:08:01.275Z,90
2023-02-03T01:12:01.428Z,90
2023-02-03T01:16:00.976Z,90
2023-02-03T01:20:01.076Z,90
2023-02-03T01:24:01.726Z,90
2023-02-03T01:28:01.087Z,91
2023-02-03T01:32:01.885Z,91
2023-02-03T01:36:01.372Z,91
2023-02-03T01:40:01.130Z,91
2023-02-03T01:44:01.718Z,91
2023-02-03T01:48:01.036Z,91
2023-02-03T01:52:02.047Z,91
2023-02-03T01:56:04.054Z,91
2023-02-03T02:00:02.102Z,91
2023-02-03T02:04:02.170Z,91
2023-02-03T02:08:02.009Z,91
2023-02-03T02:12:01.145Z,91
2023-02-03T02:16:05.975Z,91
2023-02-03T02:20:10.789Z,91
2023-02-03T02:24:10.741Z,91
2023-02-03T02:28:10.873Z,91
2023-02-03T02:32:10.660Z,91
2023-02-03T02:36:06.056Z,91
2023-02-03T02:40:06.520Z,91
2023-02-03T02:44:03.214Z,91
2023-02-03T02:48:05.711Z,91
2023-02-03T02:52:03.388Z,91
2023-02-03T02:56:03.139Z,91
2023-02-03T03:00:01.083Z,91
2023-02-03T03:04:03.865Z,91
2023-02-03T03:08:01.978Z,91
2023-02-03T03:12:05.519Z,91
2023-02-03T03:16:03.344Z,91
2023-02-03T03:20:03.468Z,91
2023-02-03T03:24:03.731Z,91
2023-02-03T03:28:02.442Z,91
2023-02-03T03:32:01.987Z,91
2023-02-03T03:36:04.394Z,91
2023-02-03T03:40:06.098Z,91
2023-02-03T03:44:02.466Z,91
2023-02-03T03:48:05.772Z,91
2023-02-03T03:52:03.531Z,91
2023-02-03T03:56:03.422Z,92
2023-02-03T04:00:01.733Z,92
2023-02-03T04:04:02.555Z,92
2023-02-03T04:08:02.321Z,92
2023-02-03T04:12:01.164Z,92
2023-02-03T04:16:01.088Z,92
2023-02-03T04:20:01.032Z,92
2023-02-03T04:24:01.229Z,92
2023-02-03T04:28:01.296Z,92
2023-02-03T04:32:01.115Z,92
2023-02-03T04:36:01.015Z,92
2023-02-03T04:40:01.323Z,92
2023-02-03T04:44:00.911Z,92
2023-02-03T04:48:01.180Z,92
2023-02-03T04:52:00.979Z,92
2023-02-03T04:56:01.176Z,92
2023-02-03T05:00:01.082Z,92
2023-02-03T05:04:00.963Z,92
2023-02-03T05:08:00.987Z,92
2023-02-03T05:12:01.039Z,92
2023-02-03T05:16:01.060Z,92
2023-02-03T05:20:01.019Z,92
2023-02-03T05:24:02.409Z,92
2023-02-03T05:28:01.228Z,92
2023-02-03T05:32:01.047Z,92
2023-02-03T05:36:01.037Z,92
2023-02-03T05:40:10.862Z,92
2023-02-03T05:44:00.877Z,92
2023-02-03T05:48:01.853Z,92
2023-02-03T05:52:01.106Z,92
2023-02-03T05:56:00.905Z,92
2023-02-03T06:00:01.211Z,92
2023-02-03T06:04:01.811Z,92
2023-02-03T06:08:00.945Z,92
2023-02-03T06:12:01.148Z,92
2023-02-03T06:16:01.044Z,92
2023-02-03T06:20:01.637Z,92
2023-02-03T06:24:01.466Z,92
2023-02-03T06:28:01.174Z,92
2023-02-03T06:32:01.347Z,92
2023-02-03T06:36:01.195Z,92
2023-02-03T06:40:00.985Z,92
2023-02-03T06:44:01.188Z,92
2023-02-03T06:48:01.077Z,92
2023-02-03T06:52:01.059Z,92
2023-02-03T06:56:02.543Z,92
2023-02-03T07:00:01.248Z,92
2023-02-03T07:04:01.046Z,92
2023-02-03T07:08:00.921Z,92
2023-02-03T07:12:01.081Z,92
2023-02-03T07:16:01.390Z,92
2023-02-03T07:20:00.928Z,92
2023-02-03T07:24:02.280Z,92
2023-02-03T07:28:01.287Z,91
2023-02-03T07:32:02.014Z,91
2023-02-03T07:36:01.394Z,91
2023-02-03T07:40:01.345Z,91
2023-02-03T07:44:01.010Z,91
2023-02-03T07:48:01.043Z,91
2023-02-03T07:52:01.023Z,91
2023-02-03T07:56:01.214Z,91
2023-02-03T08:00:01.233Z,91
2023-02-03T08:04:01.291Z,91
2023-02-03T08:08:00.979Z,91
2023-02-03T08:12:01.199Z,91
2023-02-03T08:16:01.206Z,91
2023-02-03T08:20:01.213Z,91
2023-02-03T08:24:01.046Z,91
2023-02-03T08:28:01.146Z,91
2023-02-03T08:32:00.996Z,91
2023-02-03T08:36:02.081Z,91
2023-02-03T08:40:00.982Z,91
2023-02-03T08:44:00.949Z,91
2023-02-03T08:48:01.192Z,91
2023-02-03T08:52:01.348Z,91
2023-02-03T08:56:03.340Z,91
2023-02-03T09:00:01.302Z,91
2023-02-03T09:04:03.027Z,91
2023-02-03T09:08:01.056Z,91
2023-02-03T09:12:04.474Z,91
2023-02-03T09:16:01.079Z,91
2023-02-03T09:20:01.206Z,91
2023-02-03T09:24:01.790Z,91
2023-02-03T09:28:01.589Z,91
2023-02-03T09:32:06.265Z,91
2023-02-03T09:36:01.544Z,91
2023-02-03T09:40:00.927Z,91
2023-02-03T09:44:03.991Z,91
2023-02-03T09:48:03.810Z,91
2023-02-03T09:52:04.558Z,91
2023-02-03T09:56:01.005Z,90
2023-02-03T10:00:02.780Z,90
2023-02-03T10:04:05.066Z,90
2023-02-03T10:08:07.001Z,90
2023-02-03T10:12:10.751Z,90
2023-02-03T10:16:07.731Z,89
2023-02-03T10:20:04.059Z,89
2023-02-03T10:24:02.953Z,89
2023-02-03T10:28:02.573Z,89
2023-02-03T10:32:01.952Z,89
2023-02-03T10:36:03.721Z,88
2023-02-03T10:40:01.348Z,88
2023-02-03T10:44:02.330Z,88
2023-02-03T10:48:02.358Z,87
2023-02-03T10:52:03.971Z,87
2023-02-03T10:56:02.745Z,86
2023-02-03T11:00:10.718Z,86
2023-02-03T11:04:03.000Z,86
2023-02-03T11:08:01.241Z,84
2023-02-03T11:12:05.169Z,84
2023-02-03T11:16:02.374Z,84
2023-02-03T11:20:03.677Z,84
2023-02-03T11:24:02.887Z,84
2023-02-03T11:28:04.351Z,82
2023-02-03T11:32:02.951Z,82
2023-02-03T11:36:01.803Z,81
2023-02-03T11:40:10.884Z,81
2023-02-03T11:44:09.532Z,81
2023-02-03T11:48:02.754Z,81
2023-02-03T11:52:04.210Z,81
2023-02-03T11:56:10.736Z,80
2023-02-03T12:00:12.276Z,80
2023-02-03T12:04:10.869Z,80
2023-02-03T12:08:06.461Z,80
2023-02-03T12:12:11.321Z,80
2023-02-03T12:16:08.925Z,80
2023-02-03T12:20:05.783Z,80
2023-02-03T12:24:07.811Z,80
2023-02-03T12:28:06.342Z,79
2023-02-03T12:32:04.855Z,79
2023-02-03T12:36:05.249Z,80
2023-02-03T12:40:02.796Z,80
2023-02-03T12:44:04.189Z,80
2023-02-03T12:48:04.800Z,80
2023-02-03T12:52:04.565Z,80
2023-02-03T12:56:04.210Z,80
2023-02-03T13:00:11.292Z,80
2023-02-03T13:04:06.120Z,80
2023-02-03T13:08:06.087Z,80
2023-02-03T13:12:04.444Z,80
2023-02-03T13:16:02.725Z,80
2023-02-03T13:20:03.948Z,80
2023-02-03T13:24:02.543Z,80
2023-02-03T13:28:07.899Z,79
2023-02-03T13:32:09.091Z,79
2023-02-03T13:36:08.581Z,79
2023-02-03T13:40:13.770Z,79
2023-02-03T13:44:02.091Z,79
2023-02-03T13:48:08.003Z,79
2023-02-03T13:52:01.426Z,79
2023-02-03T13:56:02.578Z,78
2023-02-03T14:00:02.605Z,78
2023-02-03T14:04:01.916Z,78
2023-02-03T14:08:10.764Z,78
2023-02-03T14:12:11.464Z,78
2023-02-03T14:16:10.847Z,78
2023-02-03T14:20:01.740Z,78
2023-02-03T14:24:05.303Z,78
2023-02-03T14:28:03.106Z,78
2023-02-03T14:32:02.131Z,78
2023-02-03T14:36:01.102Z,79
2023-02-03T14:40:11.666Z,79
2023-02-03T14:44:07.208Z,79
2023-02-03T14:48:10.686Z,79
2023-02-03T14:52:08.274Z,79
2023-02-03T14:56:10.574Z,79
2023-02-03T15:00:02.619Z,79
2023-02-03T15:04:10.671Z,79
2023-02-03T15:08:02.531Z,80
2023-02-03T15:12:00.962Z,80
2023-02-03T15:16:02.533Z,80
2023-02-03T15:20:00.961Z,80
2023-02-03T15:24:01.136Z,80
2023-02-03T15:28:11.092Z,80
2023-02-03T15:32:04.510Z,80
2023-02-03T15:36:02.777Z,80
2023-02-03T15:40:02.991Z,80
2023-02-03T15:44:02.274Z,80
2023-02-03T15:48:03.357Z,81
2023-02-03T15:52:02.854Z,81
2023-02-03T15:56:04.571Z,81
2023-02-03T16:00:03.305Z,81
2023-02-03T16:04:01.233Z,81
2023-02-03T16:08:10.715Z,81
2023-02-03T16:12:05.254Z,81
2023-02-03T16:16:04.863Z,81
2023-02-03T16:20:10.870Z,81
2023-02-03T16:24:01.600Z,81
2023-02-03T16:28:11.706Z,81
2023-02-03T16:32:11.034Z,81
2023-02-03T16:36:11.995Z,81
2023-02-03T16:40:10.784Z,81
2023-02-03T16:44:10.831Z,81
2023-02-03T16:48:11.486Z,81
2023-02-03T16:52:02.057Z,81
2023-02-03T16:56:03.371Z,82
2023-02-03T17:00:01.210Z,82
2023-02-03T17:04:01.548Z,82
2023-02-03T17:08:00.991Z,82
2023-02-03T17:12:01.054Z,82
2023-02-03T17:16:01.243Z,83
2023-02-03T17:20:00.962Z,83
2023-02-03T17:24:01.168Z,83
2023-02-03T17:28:01.153Z,83
2023-02-03T17:32:01.362Z,83
2023-02-03T17:36:02.564Z,84
2023-02-03T17:56:04.838Z,84
2023-02-03T18:00:01.050Z,84
2023-02-03T18:04:01.976Z,84
2023-02-03T18:08:12.395Z,84
2023-02-03T18:12:01.148Z,84
2023-02-03T18:16:01.360Z,85
2023-02-03T18:20:02.653Z,85
2023-02-03T18:24:01.034Z,85
2023-02-03T18:28:01.078Z,85
2023-02-03T18:32:00.892Z,85
2023-02-03T18:36:01.312Z,85
2023-02-03T18:40:00.905Z,85
2023-02-03T18:44:01.166Z,85
2023-02-03T18:48:00.976Z,85
2023-02-03T18:52:01.200Z,85
2023-02-03T18:56:01.019Z,86
2023-02-03T19:00:01.698Z,86
2023-02-03T19:04:02.385Z,86
2023-02-03T19:08:00.995Z,86
2023-02-03T19:12:02.160Z,86
2023-02-03T19:16:01.709Z,86
2023-02-03T19:20:02.020Z,86
2023-02-03T19:24:01.108Z,86
2023-02-03T19:28:02.334Z,86
2023-02-03T19:32:01.305Z,86
2023-02-03T19:36:00.998Z,86
2023-02-03T19:40:01.198Z,86
2023-02-03T19:44:01.040Z,86
2023-02-03T19:48:01.106Z,86
2023-02-03T19:52:01.017Z,86
2023-02-03T19:56:01.160Z,86
2023-02-03T20:00:01.275Z,86
2023-02-03T20:04:01.366Z,86
2023-02-03T20:08:01.032Z,86
2023-02-03T20:12:01.311Z,86
2023-02-03T20:16:01.072Z,86
2023-02-03T20:20:01.392Z,86
2023-02-03T20:24:00.945Z,86
2023-02-03T20:28:01.909Z,86
2023-02-03T20:32:01.103Z,86
2023-02-03T20:36:01.151Z,86
2023-02-03T20:40:00.997Z,86
2023-02-03T20:44:01.547Z,86
2023-02-03T20:48:00.967Z,86
2023-02-03T20:52:01.117Z,86
2023-02-03T20:56:01.023Z,86
2023-02-03T21:00:01.203Z,86
2023-02-03T21:04:12.101Z,86
2023-02-03T21:08:01.264Z,86
2023-02-03T21:12:00.954Z,86
2023-02-03T21:16:02.833Z,86
2023-02-03T21:20:00.953Z,86
2023-02-03T21:24:01.482Z,86
2023-02-03T21:28:01.155Z,86
2023-02-03T21:32:01.232Z,86
2023-02-03T21:36:00.955Z,86
2023-02-03T21:40:01.063Z,86
2023-02-03T21:44:01.038Z,86
2023-02-03T21:48:02.149Z,86
2023-02-03T21:52:01.016Z,86
2023-02-03T21:56:11.336Z,86
2023-02-03T22:00:01.091Z,86
2023-02-03T22:04:03.050Z,86
2023-02-03T22:08:03.349Z,86
2023-02-03T22:12:01.533Z,86
2023-02-03T22:16:01.335Z,86
2023-02-03T22:20:00.949Z,86
2023-02-03T22:24:01.419Z,86
2023-02-03T22:28:01.149Z,86
2023-02-03T22:32:01.460Z,86
2023-02-03T22:36:02.433Z,86
2023-02-03T22:40:01.060Z,86
2023-02-03T22:44:02.286Z,86
2023-02-03T22:48:00.967Z,85
2023-02-03T22:52:01.019Z,85
2023-02-03T22:56:01.167Z,85
2023-02-03T23:00:01.044Z,85
2023-02-03T23:04:01.125Z,85
2023-02-03T23:08:01.101Z,85
2023-02-03T23:12:01.045Z,85
2023-02-03T23:16:01.230Z,85
2023-02-03T23:20:00.945Z,85
2023-02-03T23:24:00.982Z,85
2023-02-03T23:28:01.356Z,85
2023-02-03T23:32:01.545Z,85
2023-02-03T23:36:00.955Z,85
2023-02-03T23:40:00.994Z,85
2023-02-03T23:44:00.912Z,85
2023-02-03T23:48:00.984Z,84
2023-02-03T23:52:01.066Z,84
2023-02-03T23:56:00.959Z,85
